sensor_id;sensor_type;location;lat;lon;timestamp;P1;durP1;ratioP1;P2;durP2;ratioP2
32186;SDS011;18686;53.084;8.872;2023-05-07T00:01:24;16.88;;;13.05;;
32186;SDS011;18686;53.084;8.872;2023-05-07T00:03:54;15.68;;;12.90;;
32186;SDS011;18686;53.084;8.872;2023-05-07T00:06:23;16.70;;;13.40;;
32186;SDS011;18686;53.084;8.872;2023-05-07T00:08:52;18.05;;;14.00;;
32186;SDS011;18686;53.084;8.872;2023-05-07T00:11:24;18.77;;;14.73;;
32186;SDS011;18686;53.084;8.872;2023-05-07T00:13:53;15.27;;;13.75;;
32186;SDS011;18686;53.084;8.872;2023-05-07T00:16:22;15.63;;;12.88;;
32186;SDS011;18686;53.084;8.872;2023-05-07T00:18:50;16.45;;;13.43;;
32186;SDS011;18686;53.084;8.872;2023-05-07T00:21:21;15.68;;;13.80;;
32186;SDS011;18686;53.084;8.872;2023-05-07T00:23:53;15.80;;;14.00;;
32186;SDS011;18686;53.084;8.872;2023-05-07T00:26:21;15.93;;;13.35;;
32186;SDS011;18686;53.084;8.872;2023-05-07T00:28:50;15.68;;;13.55;;
32186;SDS011;18686;53.084;8.872;2023-05-07T00:31:18;15.02;;;13.52;;
32186;SDS011;18686;53.084;8.872;2023-05-07T00:33:47;15.43;;;13.80;;
32186;SDS011;18686;53.084;8.872;2023-05-07T00:36:15;20.45;;;14.38;;
32186;SDS011;18686;53.084;8.872;2023-05-07T00:39:00;19.77;;;13.80;;
32186;SDS011;18686;53.084;8.872;2023-05-07T00:41:29;17.77;;;13.95;;
32186;SDS011;18686;53.084;8.872;2023-05-07T00:43:58;15.18;;;13.63;;
32186;SDS011;18686;53.084;8.872;2023-05-07T00:46:26;15.27;;;13.20;;
32186;SDS011;18686;53.084;8.872;2023-05-07T00:49:15;16.17;;;14.48;;
32186;SDS011;18686;53.084;8.872;2023-05-07T00:51:44;16.10;;;14.40;;
32186;SDS011;18686;53.084;8.872;2023-05-07T00:54:14;15.05;;;13.45;;
32186;SDS011;18686;53.084;8.872;2023-05-07T00:56:42;16.23;;;14.40;;
32186;SDS011;18686;53.084;8.872;2023-05-07T00:59:11;16.80;;;13.45;;
32186;SDS011;18686;53.084;8.872;2023-05-07T01:01:39;14.95;;;13.38;;
32186;SDS011;18686;53.084;8.872;2023-05-07T01:04:08;16.02;;;14.18;;
32186;SDS011;18686;53.084;8.872;2023-05-07T01:06:36;15.20;;;13.57;;
32186;SDS011;18686;53.084;8.872;2023-05-07T01:09:05;17.73;;;15.98;;
32186;SDS011;18686;53.084;8.872;2023-05-07T01:11:37;17.10;;;15.30;;
32186;SDS011;18686;53.084;8.872;2023-05-07T01:14:05;16.05;;;14.38;;
32186;SDS011;18686;53.084;8.872;2023-05-07T01:16:34;20.55;;;15.45;;
32186;SDS011;18686;53.084;8.872;2023-05-07T01:19:03;16.73;;;14.88;;
32186;SDS011;18686;53.084;8.872;2023-05-07T01:21:32;17.05;;;14.20;;
32186;SDS011;18686;53.084;8.872;2023-05-07T01:24:04;16.35;;;14.63;;
32186;SDS011;18686;53.084;8.872;2023-05-07T01:26:33;16.92;;;15.13;;
32186;SDS011;18686;53.084;8.872;2023-05-07T01:29:02;16.88;;;14.45;;
32186;SDS011;18686;53.084;8.872;2023-05-07T01:31:30;20.58;;;14.63;;
32186;SDS011;18686;53.084;8.872;2023-05-07T01:33:59;20.42;;;14.40;;
32186;SDS011;18686;53.084;8.872;2023-05-07T01:36:29;15.60;;;13.65;;
32186;SDS011;18686;53.084;8.872;2023-05-07T01:38:58;18.15;;;13.98;;
32186;SDS011;18686;53.084;8.872;2023-05-07T01:41:28;15.70;;;13.88;;
32186;SDS011;18686;53.084;8.872;2023-05-07T01:43:56;17.58;;;14.00;;
32186;SDS011;18686;53.084;8.872;2023-05-07T01:46:26;16.52;;;13.60;;
32186;SDS011;18686;53.084;8.872;2023-05-07T01:48:55;16.20;;;13.57;;
32186;SDS011;18686;53.084;8.872;2023-05-07T01:51:23;20.38;;;13.80;;
32186;SDS011;18686;53.084;8.872;2023-05-07T01:53:52;17.20;;;13.82;;
32186;SDS011;18686;53.084;8.872;2023-05-07T01:56:20;17.50;;;14.02;;
32186;SDS011;18686;53.084;8.872;2023-05-07T01:58:50;14.88;;;12.98;;
32186;SDS011;18686;53.084;8.872;2023-05-07T02:01:19;16.40;;;13.77;;
32186;SDS011;18686;53.084;8.872;2023-05-07T02:03:48;16.98;;;13.45;;
32186;SDS011;18686;53.084;8.872;2023-05-07T02:06:22;17.13;;;13.85;;
32186;SDS011;18686;53.084;8.872;2023-05-07T02:08:54;14.85;;;13.00;;
32186;SDS011;18686;53.084;8.872;2023-05-07T02:11:23;18.77;;;13.80;;
32186;SDS011;18686;53.084;8.872;2023-05-07T02:13:53;15.02;;;12.75;;
32186;SDS011;18686;53.084;8.872;2023-05-07T02:16:21;16.90;;;12.90;;
32186;SDS011;18686;53.084;8.872;2023-05-07T02:18:51;15.90;;;12.45;;
32186;SDS011;18686;53.084;8.872;2023-05-07T02:21:19;15.27;;;12.57;;
32186;SDS011;18686;53.084;8.872;2023-05-07T02:23:47;17.90;;;13.65;;
32186;SDS011;18686;53.084;8.872;2023-05-07T02:26:16;18.05;;;14.30;;
32186;SDS011;18686;53.084;8.872;2023-05-07T02:28:44;18.60;;;14.38;;
32186;SDS011;18686;53.084;8.872;2023-05-07T02:31:14;17.27;;;14.02;;
32186;SDS011;18686;53.084;8.872;2023-05-07T02:33:42;17.77;;;14.07;;
32186;SDS011;18686;53.084;8.872;2023-05-07T02:36:13;18.08;;;14.27;;
32186;SDS011;18686;53.084;8.872;2023-05-07T02:38:50;18.00;;;14.68;;
32186;SDS011;18686;53.084;8.872;2023-05-07T02:41:18;16.65;;;13.07;;
32186;SDS011;18686;53.084;8.872;2023-05-07T02:43:47;16.98;;;14.60;;
32186;SDS011;18686;53.084;8.872;2023-05-07T02:46:17;18.83;;;14.40;;
32186;SDS011;18686;53.084;8.872;2023-05-07T02:48:51;18.88;;;14.77;;
32186;SDS011;18686;53.084;8.872;2023-05-07T02:51:19;18.27;;;14.15;;
32186;SDS011;18686;53.084;8.872;2023-05-07T02:53:53;18.88;;;14.40;;
32186;SDS011;18686;53.084;8.872;2023-05-07T02:56:22;17.83;;;14.80;;
32186;SDS011;18686;53.084;8.872;2023-05-07T02:58:50;17.25;;;14.02;;
32186;SDS011;18686;53.084;8.872;2023-05-07T03:01:22;18.73;;;15.00;;
32186;SDS011;18686;53.084;8.872;2023-05-07T03:03:58;22.58;;;15.43;;
32186;SDS011;18686;53.084;8.872;2023-05-07T03:06:27;18.10;;;14.32;;
32186;SDS011;18686;53.084;8.872;2023-05-07T03:08:55;17.88;;;15.00;;
32186;SDS011;18686;53.084;8.872;2023-05-07T03:11:23;16.23;;;13.30;;
32186;SDS011;18686;53.084;8.872;2023-05-07T03:13:52;17.33;;;13.65;;
32186;SDS011;18686;53.084;8.872;2023-05-07T03:16:22;16.33;;;14.02;;
32186;SDS011;18686;53.084;8.872;2023-05-07T03:18:51;17.92;;;13.70;;
32186;SDS011;18686;53.084;8.872;2023-05-07T03:21:20;18.50;;;14.15;;
32186;SDS011;18686;53.084;8.872;2023-05-07T03:23:48;14.77;;;13.15;;
32186;SDS011;18686;53.084;8.872;2023-05-07T03:26:16;16.83;;;14.05;;
32186;SDS011;18686;53.084;8.872;2023-05-07T03:28:45;17.88;;;13.98;;
32186;SDS011;18686;53.084;8.872;2023-05-07T03:31:15;19.02;;;15.32;;
32186;SDS011;18686;53.084;8.872;2023-05-07T03:33:52;17.02;;;13.98;;
32186;SDS011;18686;53.084;8.872;2023-05-07T03:36:23;18.65;;;14.82;;
32186;SDS011;18686;53.084;8.872;2023-05-07T03:38:54;18.27;;;14.43;;
32186;SDS011;18686;53.084;8.872;2023-05-07T03:41:25;16.73;;;14.07;;
32186;SDS011;18686;53.084;8.872;2023-05-07T03:43:53;17.40;;;13.63;;
32186;SDS011;18686;53.084;8.872;2023-05-07T03:46:21;16.95;;;14.43;;
32186;SDS011;18686;53.084;8.872;2023-05-07T03:48:54;17.13;;;13.43;;
32186;SDS011;18686;53.084;8.872;2023-05-07T03:51:23;16.33;;;13.77;;
32186;SDS011;18686;53.084;8.872;2023-05-07T03:53:51;17.58;;;13.70;;
32186;SDS011;18686;53.084;8.872;2023-05-07T03:56:21;16.35;;;13.38;;
32186;SDS011;18686;53.084;8.872;2023-05-07T03:58:53;15.70;;;13.23;;
32186;SDS011;18686;53.084;8.872;2023-05-07T04:01:22;16.60;;;13.07;;
32186;SDS011;18686;53.084;8.872;2023-05-07T04:03:50;14.10;;;12.48;;
32186;SDS011;18686;53.084;8.872;2023-05-07T04:06:20;14.02;;;12.13;;
32186;SDS011;18686;53.084;8.872;2023-05-07T04:08:49;16.48;;;12.05;;
32186;SDS011;18686;53.084;8.872;2023-05-07T04:11:17;14.73;;;11.65;;
32186;SDS011;18686;53.084;8.872;2023-05-07T04:13:45;13.43;;;11.80;;
32186;SDS011;18686;53.084;8.872;2023-05-07T04:16:16;13.55;;;10.93;;
32186;SDS011;18686;53.084;8.872;2023-05-07T04:18:44;13.80;;;11.73;;
32186;SDS011;18686;53.084;8.872;2023-05-07T04:21:16;13.45;;;11.23;;
32186;SDS011;18686;53.084;8.872;2023-05-07T04:23:47;14.15;;;11.93;;
32186;SDS011;18686;53.084;8.872;2023-05-07T04:26:15;14.40;;;12.18;;
32186;SDS011;18686;53.084;8.872;2023-05-07T04:28:44;16.17;;;12.02;;
32186;SDS011;18686;53.084;8.872;2023-05-07T04:31:14;15.48;;;11.63;;
32186;SDS011;18686;53.084;8.872;2023-05-07T04:33:47;18.30;;;12.90;;
32186;SDS011;18686;53.084;8.872;2023-05-07T04:36:15;14.93;;;12.10;;
32186;SDS011;18686;53.084;8.872;2023-05-07T04:38:53;15.70;;;11.88;;
32186;SDS011;18686;53.084;8.872;2023-05-07T04:41:21;12.77;;;11.35;;
32186;SDS011;18686;53.084;8.872;2023-05-07T04:43:49;13.65;;;11.35;;
32186;SDS011;18686;53.084;8.872;2023-05-07T04:46:21;12.98;;;11.15;;
32186;SDS011;18686;53.084;8.872;2023-05-07T04:48:50;13.77;;;11.90;;
32186;SDS011;18686;53.084;8.872;2023-05-07T04:51:19;12.75;;;11.43;;
32186;SDS011;18686;53.084;8.872;2023-05-07T04:53:48;12.50;;;10.80;;
32186;SDS011;18686;53.084;8.872;2023-05-07T04:56:18;13.10;;;11.07;;
32186;SDS011;18686;53.084;8.872;2023-05-07T04:58:46;12.65;;;10.20;;
32186;SDS011;18686;53.084;8.872;2023-05-07T05:01:18;11.48;;;10.27;;
32186;SDS011;18686;53.084;8.872;2023-05-07T05:03:47;13.18;;;10.88;;
32186;SDS011;18686;53.084;8.872;2023-05-07T05:06:16;12.00;;;10.23;;
32186;SDS011;18686;53.084;8.872;2023-05-07T05:08:44;12.50;;;10.45;;
32186;SDS011;18686;53.084;8.872;2023-05-07T05:11:13;18.15;;;14.52;;
32186;SDS011;18686;53.084;8.872;2023-05-07T05:13:43;12.57;;;10.43;;
32186;SDS011;18686;53.084;8.872;2023-05-07T05:16:16;13.10;;;10.70;;
32186;SDS011;18686;53.084;8.872;2023-05-07T05:18:44;12.75;;;11.30;;
32186;SDS011;18686;53.084;8.872;2023-05-07T05:21:15;11.38;;;9.85;;
32186;SDS011;18686;53.084;8.872;2023-05-07T05:23:46;14.05;;;9.75;;
32186;SDS011;18686;53.084;8.872;2023-05-07T05:26:18;14.85;;;10.05;;
32186;SDS011;18686;53.084;8.872;2023-05-07T05:28:49;11.57;;;10.02;;
32186;SDS011;18686;53.084;8.872;2023-05-07T05:31:20;12.15;;;10.60;;
32186;SDS011;18686;53.084;8.872;2023-05-07T05:33:49;15.88;;;9.65;;
32186;SDS011;18686;53.084;8.872;2023-05-07T05:36:18;10.23;;;8.93;;
32186;SDS011;18686;53.084;8.872;2023-05-07T05:38:47;9.48;;;8.48;;
32186;SDS011;18686;53.084;8.872;2023-05-07T05:41:16;9.68;;;8.57;;
32186;SDS011;18686;53.084;8.872;2023-05-07T05:43:44;9.80;;;7.55;;
32186;SDS011;18686;53.084;8.872;2023-05-07T05:46:14;8.98;;;8.10;;
32186;SDS011;18686;53.084;8.872;2023-05-07T05:48:43;8.50;;;7.55;;
32186;SDS011;18686;53.084;8.872;2023-05-07T05:51:11;10.32;;;7.47;;
32186;SDS011;18686;53.084;8.872;2023-05-07T05:53:39;9.70;;;7.50;;
32186;SDS011;18686;53.084;8.872;2023-05-07T05:56:08;8.43;;;7.20;;
32186;SDS011;18686;53.084;8.872;2023-05-07T05:58:39;9.60;;;8.68;;
32186;SDS011;18686;53.084;8.872;2023-05-07T06:01:08;9.05;;;8.13;;
32186;SDS011;18686;53.084;8.872;2023-05-07T06:03:39;9.38;;;7.88;;
32186;SDS011;18686;53.084;8.872;2023-05-07T06:06:12;9.52;;;7.78;;
32186;SDS011;18686;53.084;8.872;2023-05-07T06:08:42;8.63;;;7.15;;
32186;SDS011;18686;53.084;8.872;2023-05-07T06:11:14;7.65;;;6.90;;
32186;SDS011;18686;53.084;8.872;2023-05-07T06:13:45;7.22;;;6.53;;
32186;SDS011;18686;53.084;8.872;2023-05-07T06:16:13;8.80;;;7.03;;
32186;SDS011;18686;53.084;8.872;2023-05-07T06:18:44;6.93;;;6.32;;
32186;SDS011;18686;53.084;8.872;2023-05-07T06:21:14;7.15;;;6.47;;
32186;SDS011;18686;53.084;8.872;2023-05-07T06:23:43;10.73;;;7.82;;
32186;SDS011;18686;53.084;8.872;2023-05-07T06:26:30;7.43;;;6.53;;
32186;SDS011;18686;53.084;8.872;2023-05-07T06:28:58;7.45;;;6.75;;
32186;SDS011;18686;53.084;8.872;2023-05-07T06:31:29;7.82;;;6.95;;
32186;SDS011;18686;53.084;8.872;2023-05-07T06:34:04;7.45;;;6.65;;
32186;SDS011;18686;53.084;8.872;2023-05-07T06:36:35;6.90;;;6.22;;
32186;SDS011;18686;53.084;8.872;2023-05-07T06:39:12;7.10;;;6.43;;
32186;SDS011;18686;53.084;8.872;2023-05-07T06:41:40;6.65;;;5.97;;
32186;SDS011;18686;53.084;8.872;2023-05-07T06:44:20;7.30;;;6.43;;
32186;SDS011;18686;53.084;8.872;2023-05-07T06:46:58;6.90;;;6.20;;
32186;SDS011;18686;53.084;8.872;2023-05-07T06:49:28;6.60;;;6.00;;
32186;SDS011;18686;53.084;8.872;2023-05-07T06:51:56;7.15;;;6.45;;
32186;SDS011;18686;53.084;8.872;2023-05-07T06:54:24;6.93;;;6.22;;
32186;SDS011;18686;53.084;8.872;2023-05-07T06:56:52;7.32;;;6.18;;
32186;SDS011;18686;53.084;8.872;2023-05-07T06:59:23;6.55;;;5.95;;
32186;SDS011;18686;53.084;8.872;2023-05-07T07:01:52;6.63;;;6.03;;
32186;SDS011;18686;53.084;8.872;2023-05-07T07:04:39;7.68;;;6.15;;
32186;SDS011;18686;53.084;8.872;2023-05-07T07:07:09;6.10;;;5.43;;
32186;SDS011;18686;53.084;8.872;2023-05-07T07:09:39;6.43;;;5.38;;
32186;SDS011;18686;53.084;8.872;2023-05-07T07:12:09;6.03;;;5.43;;
32186;SDS011;18686;53.084;8.872;2023-05-07T07:14:39;5.72;;;5.13;;
32186;SDS011;18686;53.084;8.872;2023-05-07T07:17:07;6.00;;;5.40;;
32186;SDS011;18686;53.084;8.872;2023-05-07T07:19:35;10.45;;;6.10;;
32186;SDS011;18686;53.084;8.872;2023-05-07T07:22:06;9.38;;;6.45;;
32186;SDS011;18686;53.084;8.872;2023-05-07T07:24:34;6.97;;;6.28;;
32186;SDS011;18686;53.084;8.872;2023-05-07T07:27:05;8.88;;;6.43;;
32186;SDS011;18686;53.084;8.872;2023-05-07T07:29:34;8.43;;;6.93;;
32186;SDS011;18686;53.084;8.872;2023-05-07T07:32:02;7.28;;;5.70;;
32186;SDS011;18686;53.084;8.872;2023-05-07T07:34:31;6.97;;;6.28;;
32186;SDS011;18686;53.084;8.872;2023-05-07T07:37:00;6.93;;;5.88;;
32186;SDS011;18686;53.084;8.872;2023-05-07T07:39:34;6.60;;;5.90;;
32186;SDS011;18686;53.084;8.872;2023-05-07T07:42:05;6.00;;;5.40;;
32186;SDS011;18686;53.084;8.872;2023-05-07T07:44:33;6.25;;;5.65;;
32186;SDS011;18686;53.084;8.872;2023-05-07T07:47:06;6.32;;;5.45;;
32186;SDS011;18686;53.084;8.872;2023-05-07T07:49:34;5.35;;;4.85;;
32186;SDS011;18686;53.084;8.872;2023-05-07T07:52:05;6.45;;;5.72;;
32186;SDS011;18686;53.084;8.872;2023-05-07T07:54:36;6.05;;;5.45;;
32186;SDS011;18686;53.084;8.872;2023-05-07T07:57:06;5.47;;;4.97;;
32186;SDS011;18686;53.084;8.872;2023-05-07T07:59:35;5.32;;;4.82;;
32186;SDS011;18686;53.084;8.872;2023-05-07T08:02:04;7.93;;;5.22;;
32186;SDS011;18686;53.084;8.872;2023-05-07T08:04:33;5.55;;;4.97;;
32186;SDS011;18686;53.084;8.872;2023-05-07T08:07:05;7.07;;;5.28;;
32186;SDS011;18686;53.084;8.872;2023-05-07T08:09:38;5.30;;;4.80;;
32186;SDS011;18686;53.084;8.872;2023-05-07T08:12:08;6.25;;;4.95;;
32186;SDS011;18686;53.084;8.872;2023-05-07T08:14:37;5.70;;;5.10;;
32186;SDS011;18686;53.084;8.872;2023-05-07T08:17:06;5.10;;;4.60;;
32186;SDS011;18686;53.084;8.872;2023-05-07T08:19:36;6.00;;;4.63;;
32186;SDS011;18686;53.084;8.872;2023-05-07T08:22:07;4.88;;;4.45;;
32186;SDS011;18686;53.084;8.872;2023-05-07T08:24:35;4.53;;;4.00;;
32186;SDS011;18686;53.084;8.872;2023-05-07T08:27:05;6.68;;;4.38;;
32186;SDS011;18686;53.084;8.872;2023-05-07T08:29:33;5.53;;;4.75;;
32186;SDS011;18686;53.084;8.872;2023-05-07T08:32:02;4.95;;;3.90;;
32186;SDS011;18686;53.084;8.872;2023-05-07T08:34:30;4.50;;;3.75;;
32186;SDS011;18686;53.084;8.872;2023-05-07T08:37:01;5.07;;;4.55;;
32186;SDS011;18686;53.084;8.872;2023-05-07T08:39:30;5.05;;;4.30;;
32186;SDS011;18686;53.084;8.872;2023-05-07T08:42:00;5.20;;;4.70;;
32186;SDS011;18686;53.084;8.872;2023-05-07T08:44:34;4.80;;;4.32;;
32186;SDS011;18686;53.084;8.872;2023-05-07T08:47:02;5.93;;;4.10;;
32186;SDS011;18686;53.084;8.872;2023-05-07T08:49:34;5.32;;;4.28;;
32186;SDS011;18686;53.084;8.872;2023-05-07T08:52:03;4.65;;;4.25;;
32186;SDS011;18686;53.084;8.872;2023-05-07T08:54:36;4.88;;;4.45;;
32186;SDS011;18686;53.084;8.872;2023-05-07T08:57:07;8.57;;;4.95;;
32186;SDS011;18686;53.084;8.872;2023-05-07T08:59:37;6.70;;;4.93;;
32186;SDS011;18686;53.084;8.872;2023-05-07T09:02:06;4.78;;;3.95;;
32186;SDS011;18686;53.084;8.872;2023-05-07T09:04:37;5.35;;;4.30;;
32186;SDS011;18686;53.084;8.872;2023-05-07T09:07:06;5.28;;;4.82;;
32186;SDS011;18686;53.084;8.872;2023-05-07T09:09:39;5.95;;;4.65;;
32186;SDS011;18686;53.084;8.872;2023-05-07T09:12:07;5.32;;;4.68;;
32186;SDS011;18686;53.084;8.872;2023-05-07T09:14:37;6.60;;;5.13;;
32186;SDS011;18686;53.084;8.872;2023-05-07T09:17:05;5.65;;;4.60;;
32186;SDS011;18686;53.084;8.872;2023-05-07T09:19:34;6.65;;;4.47;;
32186;SDS011;18686;53.084;8.872;2023-05-07T09:22:05;7.45;;;6.75;;
32186;SDS011;18686;53.084;8.872;2023-05-07T09:24:50;6.10;;;5.10;;
32186;SDS011;18686;53.084;8.872;2023-05-07T09:27:22;6.15;;;5.20;;
32186;SDS011;18686;53.084;8.872;2023-05-07T09:29:52;5.70;;;5.13;;
32186;SDS011;18686;53.084;8.872;2023-05-07T09:32:20;7.30;;;5.43;;
32186;SDS011;18686;53.084;8.872;2023-05-07T09:34:48;6.07;;;5.32;;
32186;SDS011;18686;53.084;8.872;2023-05-07T09:37:20;6.97;;;5.45;;
32186;SDS011;18686;53.084;8.872;2023-05-07T09:39:49;6.15;;;5.05;;
32186;SDS011;18686;53.084;8.872;2023-05-07T09:42:22;5.78;;;5.20;;
32186;SDS011;18686;53.084;8.872;2023-05-07T09:44:54;6.97;;;5.18;;
32186;SDS011;18686;53.084;8.872;2023-05-07T09:47:26;8.13;;;5.82;;
32186;SDS011;18686;53.084;8.872;2023-05-07T09:49:59;10.07;;;5.18;;
32186;SDS011;18686;53.084;8.872;2023-05-07T09:52:33;6.25;;;5.43;;
32186;SDS011;18686;53.084;8.872;2023-05-07T09:55:04;7.65;;;5.35;;
32186;SDS011;18686;53.084;8.872;2023-05-07T09:57:34;5.20;;;4.70;;
32186;SDS011;18686;53.084;8.872;2023-05-07T10:00:08;6.03;;;4.90;;
32186;SDS011;18686;53.084;8.872;2023-05-07T10:02:47;5.30;;;4.80;;
32186;SDS011;18686;53.084;8.872;2023-05-07T10:05:24;4.72;;;4.05;;
32186;SDS011;18686;53.084;8.872;2023-05-07T10:07:56;7.95;;;5.22;;
32186;SDS011;18686;53.084;8.872;2023-05-07T10:10:25;5.72;;;5.15;;
32186;SDS011;18686;53.084;8.872;2023-05-07T10:12:55;6.75;;;5.60;;
32186;SDS011;18686;53.084;8.872;2023-05-07T10:15:30;6.15;;;5.50;;
32186;SDS011;18686;53.084;8.872;2023-05-07T10:18:01;7.55;;;5.80;;
32186;SDS011;18686;53.084;8.872;2023-05-07T10:20:31;7.63;;;6.07;;
32186;SDS011;18686;53.084;8.872;2023-05-07T10:23:01;7.32;;;5.70;;
32186;SDS011;18686;53.084;8.872;2023-05-07T10:25:39;7.18;;;5.13;;
32186;SDS011;18686;53.084;8.872;2023-05-07T10:28:15;5.80;;;4.90;;
32186;SDS011;18686;53.084;8.872;2023-05-07T10:30:52;6.35;;;5.10;;
32186;SDS011;18686;53.084;8.872;2023-05-07T10:33:35;5.60;;;5.07;;
32186;SDS011;18686;53.084;8.872;2023-05-07T10:36:05;8.27;;;5.80;;
32186;SDS011;18686;53.084;8.872;2023-05-07T10:38:34;7.15;;;5.00;;
32186;SDS011;18686;53.084;8.872;2023-05-07T10:41:02;7.53;;;5.63;;
32186;SDS011;18686;53.084;8.872;2023-05-07T10:43:39;6.18;;;5.43;;
32186;SDS011;18686;53.084;8.872;2023-05-07T10:46:15;6.22;;;5.60;;
32186;SDS011;18686;53.084;8.872;2023-05-07T10:49:06;5.20;;;4.65;;
32186;SDS011;18686;53.084;8.872;2023-05-07T10:55:19;6.93;;;5.45;;
32186;SDS011;18686;53.084;8.872;2023-05-07T10:57:57;5.43;;;4.50;;
32186;SDS011;18686;53.084;8.872;2023-05-07T11:01:07;6.18;;;5.57;;
32186;SDS011;18686;53.084;8.872;2023-05-07T11:07:26;5.60;;;5.10;;
32186;SDS011;18686;53.084;8.872;2023-05-07T11:10:04;5.63;;;5.07;;
32186;SDS011;18686;53.084;8.872;2023-05-07T11:12:53;7.80;;;4.38;;
32186;SDS011;18686;53.084;8.872;2023-05-07T11:15:39;5.20;;;4.70;;
32186;SDS011;18686;53.084;8.872;2023-05-07T11:18:22;5.45;;;4.95;;
32186;SDS011;18686;53.084;8.872;2023-05-07T11:20:54;5.63;;;5.00;;
32186;SDS011;18686;53.084;8.872;2023-05-07T11:23:55;5.15;;;4.45;;
32186;SDS011;18686;53.084;8.872;2023-05-07T11:26:44;4.45;;;4.05;;
32186;SDS011;18686;53.084;8.872;2023-05-07T11:29:15;6.47;;;4.38;;
32186;SDS011;18686;53.084;8.872;2023-05-07T11:31:50;5.20;;;4.45;;
32186;SDS011;18686;53.084;8.872;2023-05-07T11:34:21;5.13;;;4.63;;
32186;SDS011;18686;53.084;8.872;2023-05-07T11:36:53;6.82;;;3.67;;
32186;SDS011;18686;53.084;8.872;2023-05-07T11:39:32;4.68;;;4.22;;
32186;SDS011;18686;53.084;8.872;2023-05-07T11:42:02;4.53;;;4.13;;
32186;SDS011;18686;53.084;8.872;2023-05-07T11:44:42;4.40;;;3.83;;
32186;SDS011;18686;53.084;8.872;2023-05-07T11:47:16;5.10;;;4.13;;
32186;SDS011;18686;53.084;8.872;2023-05-07T11:49:45;6.20;;;3.60;;
32186;SDS011;18686;53.084;8.872;2023-05-07T11:52:16;4.68;;;3.90;;
32186;SDS011;18686;53.084;8.872;2023-05-07T11:54:48;4.38;;;3.97;;
32186;SDS011;18686;53.084;8.872;2023-05-07T11:57:16;6.72;;;4.93;;
32186;SDS011;18686;53.084;8.872;2023-05-07T11:59:44;5.32;;;4.00;;
32186;SDS011;18686;53.084;8.872;2023-05-07T12:02:14;7.22;;;4.47;;
32186;SDS011;18686;53.084;8.872;2023-05-07T12:04:42;5.15;;;4.50;;
32186;SDS011;18686;53.084;8.872;2023-05-07T12:07:11;4.97;;;4.28;;
32186;SDS011;18686;53.084;8.872;2023-05-07T12:09:41;7.25;;;4.57;;
32186;SDS011;18686;53.084;8.872;2023-05-07T12:12:10;5.05;;;4.55;;
32186;SDS011;18686;53.084;8.872;2023-05-07T12:14:39;5.22;;;4.72;;
32186;SDS011;18686;53.084;8.872;2023-05-07T12:17:08;3.90;;;3.60;;
32186;SDS011;18686;53.084;8.872;2023-05-07T12:19:37;4.70;;;4.22;;
32186;SDS011;18686;53.084;8.872;2023-05-07T12:22:07;5.03;;;3.95;;
32186;SDS011;18686;53.084;8.872;2023-05-07T12:24:45;4.25;;;3.83;;
32186;SDS011;18686;53.084;8.872;2023-05-07T12:27:13;4.15;;;3.75;;
32186;SDS011;18686;53.084;8.872;2023-05-07T12:29:43;5.03;;;3.80;;
32186;SDS011;18686;53.084;8.872;2023-05-07T12:32:13;4.18;;;3.78;;
32186;SDS011;18686;53.084;8.872;2023-05-07T12:34:42;4.43;;;3.50;;
32186;SDS011;18686;53.084;8.872;2023-05-07T12:37:11;4.68;;;4.18;;
32186;SDS011;18686;53.084;8.872;2023-05-07T12:39:47;7.13;;;4.97;;
32186;SDS011;18686;53.084;8.872;2023-05-07T12:42:15;4.95;;;4.38;;
32186;SDS011;18686;53.084;8.872;2023-05-07T12:44:49;5.18;;;4.18;;
32186;SDS011;18686;53.084;8.872;2023-05-07T12:47:18;4.95;;;4.20;;
32186;SDS011;18686;53.084;8.872;2023-05-07T12:49:48;5.72;;;3.83;;
32186;SDS011;18686;53.084;8.872;2023-05-07T12:52:16;5.43;;;3.67;;
32186;SDS011;18686;53.084;8.872;2023-05-07T12:54:45;3.25;;;2.95;;
32186;SDS011;18686;53.084;8.872;2023-05-07T12:57:15;4.90;;;4.00;;
32186;SDS011;18686;53.084;8.872;2023-05-07T12:59:47;3.85;;;3.55;;
32186;SDS011;18686;53.084;8.872;2023-05-07T13:02:15;5.80;;;3.10;;
32186;SDS011;18686;53.084;8.872;2023-05-07T13:04:43;5.57;;;3.50;;
32186;SDS011;18686;53.084;8.872;2023-05-07T13:07:11;3.50;;;3.20;;
32186;SDS011;18686;53.084;8.872;2023-05-07T13:09:39;5.90;;;4.30;;
32186;SDS011;18686;53.084;8.872;2023-05-07T13:12:10;5.65;;;3.60;;
32186;SDS011;18686;53.084;8.872;2023-05-07T13:14:38;3.67;;;3.28;;
32186;SDS011;18686;53.084;8.872;2023-05-07T13:17:06;3.90;;;3.40;;
32186;SDS011;18686;53.084;8.872;2023-05-07T13:19:34;3.10;;;2.67;;
32186;SDS011;18686;53.084;8.872;2023-05-07T13:22:03;2.85;;;2.55;;
32186;SDS011;18686;53.084;8.872;2023-05-07T13:24:33;4.47;;;2.97;;
32186;SDS011;18686;53.084;8.872;2023-05-07T13:27:01;4.07;;;2.50;;
32186;SDS011;18686;53.084;8.872;2023-05-07T13:29:49;4.93;;;2.80;;
32186;SDS011;18686;53.084;8.872;2023-05-07T13:32:17;2.65;;;2.15;;
32186;SDS011;18686;53.084;8.872;2023-05-07T13:34:46;14.23;;;2.47;;
32186;SDS011;18686;53.084;8.872;2023-05-07T13:37:14;2.50;;;2.25;;
32186;SDS011;18686;53.084;8.872;2023-05-07T13:39:42;3.13;;;2.45;;
32186;SDS011;18686;53.084;8.872;2023-05-07T13:42:11;2.22;;;2.00;;
32186;SDS011;18686;53.084;8.872;2023-05-07T13:44:39;3.17;;;2.55;;
32186;SDS011;18686;53.084;8.872;2023-05-07T13:47:08;5.05;;;2.30;;
32186;SDS011;18686;53.084;8.872;2023-05-07T13:49:37;2.47;;;2.22;;
32186;SDS011;18686;53.084;8.872;2023-05-07T13:52:05;2.35;;;2.15;;
32186;SDS011;18686;53.084;8.872;2023-05-07T13:54:33;3.03;;;2.00;;
32186;SDS011;18686;53.084;8.872;2023-05-07T13:57:01;2.72;;;1.90;;
32186;SDS011;18686;53.084;8.872;2023-05-07T13:59:29;2.22;;;1.75;;
32186;SDS011;18686;53.084;8.872;2023-05-07T14:01:57;2.78;;;2.00;;
32186;SDS011;18686;53.084;8.872;2023-05-07T14:04:27;2.20;;;2.00;;
32186;SDS011;18686;53.084;8.872;2023-05-07T14:06:55;2.35;;;1.80;;
32186;SDS011;18686;53.084;8.872;2023-05-07T14:09:23;2.63;;;1.80;;
32186;SDS011;18686;53.084;8.872;2023-05-07T14:11:51;2.30;;;2.10;;
32186;SDS011;18686;53.084;8.872;2023-05-07T14:14:19;2.58;;;2.10;;
32186;SDS011;18686;53.084;8.872;2023-05-07T14:16:47;2.85;;;2.20;;
32186;SDS011;18686;53.084;8.872;2023-05-07T14:19:16;5.90;;;2.53;;
32186;SDS011;18686;53.084;8.872;2023-05-07T14:21:46;2.58;;;2.20;;
32186;SDS011;18686;53.084;8.872;2023-05-07T14:24:14;3.10;;;2.80;;
32186;SDS011;18686;53.084;8.872;2023-05-07T14:27:00;3.55;;;3.10;;
32186;SDS011;18686;53.084;8.872;2023-05-07T14:29:28;4.80;;;3.13;;
32186;SDS011;18686;53.084;8.872;2023-05-07T14:31:56;5.32;;;3.05;;
32186;SDS011;18686;53.084;8.872;2023-05-07T14:34:24;4.78;;;2.90;;
32186;SDS011;18686;53.084;8.872;2023-05-07T14:36:53;5.93;;;3.33;;
32186;SDS011;18686;53.084;8.872;2023-05-07T14:39:22;6.03;;;3.33;;
32186;SDS011;18686;53.084;8.872;2023-05-07T14:41:51;5.13;;;3.42;;
32186;SDS011;18686;53.084;8.872;2023-05-07T14:44:21;4.65;;;3.33;;
32186;SDS011;18686;53.084;8.872;2023-05-07T14:46:49;6.85;;;3.97;;
32186;SDS011;18686;53.084;8.872;2023-05-07T14:49:17;5.25;;;3.65;;
32186;SDS011;18686;53.084;8.872;2023-05-07T14:51:46;6.03;;;3.15;;
32186;SDS011;18686;53.084;8.872;2023-05-07T14:54:16;4.50;;;4.05;;
32186;SDS011;18686;53.084;8.872;2023-05-07T14:56:44;5.93;;;4.57;;
32186;SDS011;18686;53.084;8.872;2023-05-07T14:59:13;8.13;;;4.00;;
32186;SDS011;18686;53.084;8.872;2023-05-07T15:01:42;6.00;;;3.63;;
32186;SDS011;18686;53.084;8.872;2023-05-07T15:04:12;3.92;;;3.35;;
32186;SDS011;18686;53.084;8.872;2023-05-07T15:06:41;5.35;;;3.63;;